createdAt,value
2018-08-23T00:01:07.624Z,78.80
2018-08-23T00:03:38.120Z,79.10
2018-08-23T00:06:06.664Z,78.80
2018-08-23T00:08:35.128Z,79.00
2018-08-23T00:11:03.696Z,79.20
2018-08-23T00:13:36.324Z,79.50
2018-08-23T00:16:04.817Z,79.60
2018-08-23T00:18:33.254Z,79.90
2018-08-23T00:21:01.700Z,80.00
2018-08-23T00:23:30.106Z,80.00
2018-08-23T00:25:58.533Z,80.00
2018-08-23T00:28:26.868Z,80.00
2018-08-23T00:30:55.330Z,80.00
2018-08-23T00:33:23.837Z,79.80
2018-08-23T00:35:52.284Z,79.80
2018-08-23T00:38:20.761Z,80.10
2018-08-23T00:40:49.189Z,80.20
2018-08-23T00:43:17.653Z,80.10
2018-08-23T00:45:46.265Z,80.10
2018-08-23T00:48:14.717Z,80.30
2018-08-23T00:50:52.064Z,80.30
2018-08-23T00:53:20.782Z,80.40
2018-08-23T00:55:53.699Z,80.20
2018-08-23T00:58:22.062Z,80.30
2018-08-23T01:00:54.665Z,80.50
2018-08-23T01:03:23.152Z,80.60
2018-08-23T01:05:51.600Z,80.50
2018-08-23T01:08:26.211Z,80.70
2018-08-23T01:10:54.621Z,80.80
2018-08-23T01:13:23.046Z,80.70
2018-08-23T01:15:51.568Z,80.90
2018-08-23T01:18:21.055Z,80.80
2018-08-23T01:20:51.843Z,80.80
2018-08-23T01:23:20.417Z,80.70
2018-08-23T01:25:49.654Z,80.90
2018-08-23T01:28:18.146Z,80.90
2018-08-23T01:30:47.547Z,80.80
2018-08-23T01:33:18.176Z,80.70
2018-08-23T01:35:47.850Z,80.90
2018-08-23T01:38:16.698Z,81.10
2018-08-23T01:40:45.221Z,81.50
2018-08-23T01:43:13.860Z,81.80
2018-08-23T01:45:42.312Z,81.70
2018-08-23T01:48:11.416Z,81.10
2018-08-23T01:50:39.903Z,81.30
2018-08-23T01:53:08.304Z,81.10
2018-08-23T01:55:36.689Z,80.80
2018-08-23T01:58:05.242Z,81.40
2018-08-23T02:00:35.278Z,80.90
2018-08-23T02:03:04.111Z,81.00
2018-08-23T02:05:32.569Z,81.30
2018-08-23T02:08:00.964Z,81.40
2018-08-23T02:10:29.442Z,81.30
2018-08-23T02:12:58.622Z,82.00
2018-08-23T02:15:35.249Z,82.00
2018-08-23T02:18:04.005Z,82.30
2018-08-23T02:20:32.401Z,81.90
2018-08-23T02:23:01.943Z,82.20
2018-08-23T02:25:30.398Z,81.90
2018-08-23T02:28:01.073Z,81.80
2018-08-23T02:30:43.100Z,81.50
2018-08-23T02:33:12.702Z,82.20
2018-08-23T02:35:47.432Z,82.40
2018-08-23T02:38:16.279Z,82.20
2018-08-23T02:40:44.773Z,82.10
2018-08-23T02:43:13.257Z,82.20
2018-08-23T02:45:47.017Z,82.20
2018-08-23T02:48:15.487Z,82.30
2018-08-23T02:50:43.964Z,82.90
2018-08-23T02:53:29.652Z,83.00
2018-08-23T02:56:02.579Z,83.20
2018-08-23T02:58:31.039Z,83.60
2018-08-23T03:01:00.537Z,83.80
2018-08-23T03:03:28.929Z,83.80
2018-08-23T03:05:57.373Z,83.80
2018-08-23T03:08:37.045Z,84.10
2018-08-23T03:11:05.628Z,84.00
2018-08-23T03:13:35.821Z,83.90
2018-08-23T03:16:04.254Z,84.00
2018-08-23T03:18:33.179Z,83.90
2018-08-23T03:21:05.827Z,83.80
2018-08-23T03:23:34.251Z,83.60
2018-08-23T03:26:02.676Z,83.40
2018-08-23T03:28:31.833Z,83.50
2018-08-23T03:31:00.714Z,83.80
2018-08-23T03:33:29.987Z,84.50
2018-08-23T03:35:58.389Z,83.90
2018-08-23T03:38:26.915Z,84.00
2018-08-23T03:40:55.540Z,83.50
2018-08-23T03:43:23.936Z,84.00
2018-08-23T03:45:52.338Z,83.70
2018-08-23T03:48:20.774Z,84.10
2018-08-23T03:50:52.884Z,84.30
2018-08-23T03:53:21.666Z,83.90
2018-08-23T03:56:03.861Z,83.90
2018-08-23T03:58:32.348Z,83.70
2018-08-23T04:01:03.989Z,84.00
2018-08-23T04:03:32.584Z,84.10
2018-08-23T04:06:42.700Z,84.20
2018-08-23T04:09:11.228Z,84.50
2018-08-23T04:11:39.860Z,83.90
2018-08-23T04:14:08.349Z,83.60
2018-08-23T04:16:36.762Z,83.70
2018-08-23T04:19:05.153Z,83.80
2018-08-23T04:21:33.630Z,83.90
2018-08-23T04:24:02.196Z,83.40
2018-08-23T04:26:30.701Z,83.60
2018-08-23T04:28:59.066Z,84.00
2018-08-23T04:31:27.557Z,83.80
2018-08-23T04:33:55.993Z,84.00
2018-08-23T04:36:29.498Z,84.00
2018-08-23T04:39:00.340Z,83.90
2018-08-23T04:41:29.656Z,84.00
2018-08-23T04:44:06.461Z,83.90
2018-08-23T04:46:35.825Z,83.90
2018-08-23T04:49:06.040Z,84.10
2018-08-23T04:51:35.331Z,84.40
2018-08-23T04:54:03.820Z,84.00
2018-08-23T04:56:32.626Z,84.70
2018-08-23T04:59:02.094Z,84.20
2018-08-23T05:01:30.732Z,84.60
2018-08-23T05:03:59.341Z,84.60
2018-08-23T05:06:31.232Z,84.40
2018-08-23T05:08:59.781Z,84.80
2018-08-23T05:11:28.420Z,84.60
2018-08-23T05:13:56.890Z,85.30
2018-08-23T05:16:25.273Z,85.50
2018-08-23T05:18:53.768Z,85.90
2018-08-23T05:21:22.306Z,86.30
2018-08-23T05:23:51.284Z,85.90
2018-08-23T05:26:19.822Z,86.70
2018-08-23T05:29:00.412Z,86.50
2018-08-23T05:31:30.330Z,86.50
2018-08-23T05:34:01.732Z,86.80
2018-08-23T05:36:30.174Z,86.30
2018-08-23T05:38:58.868Z,86.10
2018-08-23T05:41:27.361Z,86.10
2018-08-23T05:44:03.374Z,86.00
2018-08-23T05:46:38.746Z,86.20
2018-08-23T05:49:08.598Z,86.50
2018-08-23T05:51:38.948Z,86.10
2018-08-23T05:54:07.364Z,86.70
2018-08-23T05:56:36.361Z,86.00
2018-08-23T05:59:10.976Z,86.60
2018-08-23T06:01:39.517Z,86.80
2018-08-23T06:04:08.064Z,86.50
2018-08-23T06:06:36.607Z,86.50
2018-08-23T06:09:07.263Z,86.50
2018-08-23T06:11:35.711Z,86.80
2018-08-23T06:14:04.227Z,86.80
2018-08-23T06:16:38.284Z,86.80
2018-08-23T06:19:06.875Z,87.30
2018-08-23T06:21:35.467Z,87.30
2018-08-23T06:24:04.773Z,86.50
2018-08-23T06:26:42.361Z,87.30
2018-08-23T06:29:13.648Z,88.10
2018-08-23T06:32:11.554Z,87.70
2018-08-23T06:34:51.385Z,87.60
2018-08-23T06:37:21.152Z,87.50
2018-08-23T06:39:49.617Z,87.50
2018-08-23T06:42:18.021Z,87.40
2018-08-23T06:44:53.943Z,87.90
2018-08-23T06:47:23.913Z,87.70
2018-08-23T06:49:53.653Z,87.50
2018-08-23T06:53:04.441Z,87.30
2018-08-23T06:55:35.058Z,87.50
2018-08-23T06:58:04.407Z,87.40
2018-08-23T07:00:33.252Z,86.80
2018-08-23T07:03:04.079Z,85.70
2018-08-23T07:05:32.659Z,86.20
2018-08-23T07:08:01.014Z,86.70
2018-08-23T07:10:29.825Z,86.10
2018-08-23T07:12:59.159Z,86.00
2018-08-23T07:15:27.669Z,85.70
2018-08-23T07:17:56.196Z,85.20
2018-08-23T07:20:24.638Z,84.70
2018-08-23T07:22:53.142Z,84.50
2018-08-23T07:25:21.581Z,84.20
2018-08-23T07:27:49.974Z,85.10
2018-08-23T07:30:19.627Z,84.30
2018-08-23T07:32:49.371Z,83.60
2018-08-23T07:35:19.104Z,83.30
2018-08-23T07:37:49.147Z,82.90
2018-08-23T07:40:20.669Z,83.20
2018-08-23T07:42:50.447Z,82.20
2018-08-23T07:45:18.838Z,81.70
2018-08-23T07:47:48.507Z,81.90
2018-08-23T07:50:16.976Z,81.30
2018-08-23T07:52:46.773Z,81.50
2018-08-23T07:55:15.260Z,82.10
2018-08-23T07:57:44.139Z,82.10
2018-08-23T08:00:28.118Z,81.60
2018-08-23T08:02:56.605Z,80.70
2018-08-23T08:05:30.278Z,80.10
2018-08-23T08:07:58.793Z,80.20
2018-08-23T08:10:32.198Z,79.40
2018-08-23T08:13:00.664Z,80.00
2018-08-23T08:15:29.053Z,79.10
2018-08-23T08:18:05.446Z,79.20
2018-08-23T08:20:34.304Z,79.30
2018-08-23T08:23:02.710Z,79.40
2018-08-23T08:25:32.491Z,78.50
2018-08-23T08:28:00.996Z,78.60
2018-08-23T08:30:42.246Z,78.00
2018-08-23T08:33:13.482Z,78.30
2018-08-23T08:35:42.510Z,77.80
2018-08-23T08:38:11.122Z,78.10
2018-08-23T08:40:39.617Z,77.70
2018-08-23T08:43:08.085Z,77.10
2018-08-23T08:45:36.542Z,77.20
2018-08-23T08:48:13.743Z,77.50
2018-08-23T08:50:47.646Z,77.60
2018-08-23T08:53:16.149Z,77.50
2018-08-23T08:55:44.718Z,76.80
2018-08-23T08:58:13.270Z,76.50
2018-08-23T09:00:51.330Z,75.60
2018-08-23T09:03:21.406Z,75.20
2018-08-23T09:05:49.841Z,75.20
2018-08-23T09:08:18.444Z,74.90
2018-08-23T09:10:46.941Z,73.00
2018-08-23T09:13:15.441Z,72.80
2018-08-23T09:15:47.958Z,73.00
2018-08-23T09:18:20.888Z,73.30
2018-08-23T09:20:52.646Z,73.40
2018-08-23T09:23:21.144Z,72.50
2018-08-23T09:25:49.652Z,73.30
2018-08-23T09:28:19.909Z,73.70
2018-08-23T09:30:48.373Z,72.70
2018-08-23T09:33:23.089Z,72.40
2018-08-23T09:35:51.661Z,72.50
2018-08-23T09:38:20.080Z,72.40
2018-08-23T09:40:48.678Z,71.60
2018-08-23T09:43:17.165Z,71.60
2018-08-23T09:45:45.937Z,71.10
2018-08-23T09:48:15.081Z,70.30
2018-08-23T09:50:43.685Z,69.60
2018-08-23T09:53:17.529Z,69.40
2018-08-23T09:55:47.646Z,69.80
2018-08-23T09:58:25.666Z,70.40
2018-08-23T10:00:59.832Z,70.80
2018-08-23T10:03:34.736Z,70.40
2018-08-23T10:06:08.688Z,70.90
2018-08-23T10:08:42.604Z,70.30
2018-08-23T10:11:19.805Z,70.60
2018-08-23T10:13:53.370Z,70.10
2018-08-23T10:16:27.362Z,70.50
2018-08-23T10:18:59.650Z,71.00
2018-08-23T10:21:33.599Z,70.50
2018-08-23T10:24:15.276Z,69.90
2018-08-23T10:26:43.949Z,69.10
2018-08-23T10:29:12.463Z,66.90
2018-08-23T10:31:40.978Z,66.80
2018-08-23T10:34:09.502Z,67.10
2018-08-23T10:36:38.122Z,67.50
2018-08-23T10:39:09.459Z,66.70
2018-08-23T10:41:38.226Z,65.70
2018-08-23T10:44:06.990Z,65.30
2018-08-23T10:46:40.873Z,65.10
2018-08-23T10:49:09.536Z,64.30
2018-08-23T10:51:38.165Z,63.90
2018-08-23T10:54:06.650Z,63.80
2018-08-23T10:56:35.121Z,64.10
2018-08-23T10:59:03.662Z,63.80
2018-08-23T11:01:32.162Z,63.30
2018-08-23T11:04:05.473Z,62.90
2018-08-23T11:06:35.066Z,63.60
2018-08-23T11:10:08.077Z,62.30
2018-08-23T11:12:41.926Z,63.30
2018-08-23T11:15:15.812Z,62.60
2018-08-23T11:17:49.598Z,62.70
2018-08-23T11:20:23.400Z,63.00
2018-08-23T11:23:04.129Z,63.50
2018-08-23T11:25:32.670Z,62.90
2018-08-23T11:28:06.448Z,63.20
2018-08-23T11:30:35.139Z,63.10
2018-08-23T11:33:08.120Z,63.40
2018-08-23T11:35:37.096Z,63.50
2018-08-23T11:38:06.661Z,62.30
2018-08-23T11:40:35.518Z,63.20
2018-08-23T11:43:04.513Z,62.80
2018-08-23T11:45:38.079Z,61.50
2018-08-23T11:48:06.531Z,61.20
2018-08-23T11:50:38.200Z,61.90
2018-08-23T11:53:08.474Z,61.30
2018-08-23T11:55:39.036Z,60.40
2018-08-23T11:58:12.976Z,60.40
2018-08-23T12:00:41.602Z,59.90
2018-08-23T12:03:10.268Z,60.00
2018-08-23T12:05:39.857Z,60.40
2018-08-23T12:08:08.541Z,60.50
2018-08-23T12:10:37.937Z,60.70
2018-08-23T12:13:06.526Z,61.30
2018-08-23T12:15:35.209Z,62.10
2018-08-23T12:18:05.553Z,62.10
2018-08-23T12:20:37.007Z,62.80
2018-08-23T12:23:05.617Z,63.60
2018-08-23T12:25:35.777Z,63.60
2018-08-23T12:28:12.482Z,63.40
2018-08-23T12:30:44.779Z,64.10
2018-08-23T12:33:13.469Z,64.20
2018-08-23T12:35:46.811Z,63.60
2018-08-23T13:02:48.311Z,64.30
2018-08-23T13:05:17.605Z,64.90
2018-08-23T13:07:46.220Z,65.10
2018-08-23T13:10:15.241Z,65.20
2018-08-23T13:12:43.896Z,64.70
2018-08-23T13:15:12.709Z,65.30
2018-08-23T13:17:41.470Z,65.70
2018-08-23T13:20:10.097Z,65.70
2018-08-23T13:22:40.322Z,65.70
2018-08-23T13:25:11.119Z,65.80
2018-08-23T13:27:43.631Z,65.30
2018-08-23T13:30:12.325Z,64.40
2018-08-23T13:32:41.145Z,64.30
2018-08-23T13:35:10.829Z,64.30
2018-08-23T13:37:40.437Z,64.30
2018-08-23T13:40:14.482Z,64.00
2018-08-23T13:42:43.128Z,64.10
2018-08-23T13:45:11.709Z,62.60
2018-08-23T13:47:40.373Z,63.20
2018-08-23T13:50:09.250Z,63.20
2018-08-23T13:52:37.749Z,63.20
2018-08-23T13:55:06.357Z,62.40
2018-08-23T13:57:34.873Z,62.30
2018-08-23T14:00:03.675Z,62.30
2018-08-23T14:02:32.499Z,62.50
2018-08-23T14:05:01.993Z,61.60
2018-08-23T14:07:31.372Z,60.80
2018-08-23T14:10:00.051Z,59.90
2018-08-23T14:12:28.549Z,59.70
2018-08-23T14:14:58.094Z,59.40
2018-08-23T14:17:28.329Z,59.20
2018-08-23T14:19:56.967Z,58.60
2018-08-23T14:22:25.610Z,58.90
2018-08-23T14:24:54.196Z,59.20
2018-08-23T14:27:22.848Z,58.80
2018-08-23T14:29:52.138Z,59.40
2018-08-23T14:32:21.253Z,58.90
2018-08-23T14:34:49.793Z,58.90
2018-08-23T14:37:18.489Z,59.10
2018-08-23T14:39:47.092Z,59.70
2018-08-23T14:42:15.647Z,59.50
2018-08-23T14:44:44.162Z,59.30
2018-08-23T14:47:18.041Z,59.60
2018-08-23T14:49:46.498Z,59.80
2018-08-23T14:52:15.056Z,60.00
2018-08-23T14:54:43.779Z,60.40
2018-08-23T14:57:17.558Z,60.10
2018-08-23T14:59:46.245Z,59.70
2018-08-23T15:02:14.986Z,59.80
2018-08-23T15:04:46.548Z,60.20
2018-08-23T15:07:15.665Z,59.60
2018-08-23T15:09:44.248Z,59.90
2018-08-23T15:12:13.002Z,60.30
2018-08-23T15:14:44.735Z,60.60
2018-08-23T15:17:13.737Z,60.70
2018-08-23T15:19:42.362Z,60.50
2018-08-23T15:22:11.105Z,60.40
2018-08-23T15:24:39.919Z,59.90
2018-08-23T15:27:08.631Z,59.10
2018-08-23T15:29:37.432Z,59.70
2018-08-23T15:32:06.091Z,59.10
2018-08-23T15:34:34.756Z,59.50
2018-08-23T15:37:03.357Z,59.10
2018-08-23T15:39:32.110Z,58.80
2018-08-23T15:42:00.693Z,60.00
2018-08-23T15:44:30.275Z,59.70
2018-08-23T15:46:59.220Z,59.80
2018-08-23T15:49:28.695Z,59.50
2018-08-23T15:51:58.805Z,59.70
2018-08-23T15:54:28.490Z,59.70
2018-08-23T15:56:57.302Z,60.10
2018-08-23T15:59:25.954Z,59.80
2018-08-23T16:02:07.532Z,59.10
2018-08-23T16:04:37.021Z,59.90
2018-08-23T16:07:05.693Z,60.00
2018-08-23T16:09:34.293Z,59.60
2018-08-23T16:12:03.660Z,60.40
2018-08-23T16:14:32.289Z,60.20
2018-08-23T16:17:07.101Z,59.80
2018-08-23T16:19:41.557Z,60.10
2018-08-23T16:22:10.279Z,60.40
2018-08-23T16:24:38.854Z,60.40
2018-08-23T16:27:07.391Z,59.90
2018-08-23T16:29:35.917Z,60.00
2018-08-23T16:32:04.648Z,59.70
2018-08-23T16:34:33.177Z,60.20
2018-08-23T16:37:02.972Z,60.00
2018-08-23T16:39:31.451Z,60.30
2018-08-23T16:41:59.919Z,60.20
2018-08-23T16:44:29.052Z,60.60
2018-08-23T16:46:57.477Z,61.10
2018-08-23T16:49:26.858Z,61.80
2018-08-23T16:51:55.823Z,60.50
2018-08-23T16:54:24.312Z,60.30
2018-08-23T16:56:52.826Z,60.30
2018-08-23T16:59:21.281Z,60.40
2018-08-23T17:01:49.932Z,60.80
2018-08-23T17:04:18.352Z,60.50
2018-08-23T17:06:46.876Z,60.50
2018-08-23T17:09:15.365Z,60.60
2018-08-23T17:11:43.836Z,61.30
2018-08-23T17:14:14.610Z,61.10
2018-08-23T17:16:48.419Z,60.80
2018-08-23T17:19:16.903Z,60.80
2018-08-23T17:21:46.414Z,60.20
2018-08-23T17:24:15.025Z,61.50
2018-08-23T17:26:43.481Z,60.30
2018-08-23T17:29:12.060Z,60.60
2018-08-23T17:31:40.578Z,60.30
2018-08-23T17:34:09.567Z,60.70
2018-08-23T17:36:38.134Z,60.90
2018-08-23T17:39:07.759Z,60.50
2018-08-23T17:41:36.545Z,61.60
2018-08-23T17:44:05.034Z,62.10
2018-08-23T17:46:33.574Z,62.90
2018-08-23T17:49:02.137Z,62.10
2018-08-23T17:51:30.756Z,63.10
2018-08-23T17:53:59.297Z,62.70
2018-08-23T17:56:27.844Z,63.30
2018-08-23T17:58:56.429Z,62.30
2018-08-23T18:01:25.912Z,62.20
2018-08-23T18:03:54.457Z,62.50
2018-08-23T18:06:23.062Z,62.10
2018-08-23T18:08:51.638Z,63.70
2018-08-23T18:11:20.218Z,63.60
2018-08-23T18:13:48.793Z,64.00
2018-08-23T18:16:22.596Z,63.30
2018-08-23T18:18:51.962Z,63.30
2018-08-23T18:21:20.514Z,63.30
2018-08-23T18:23:49.147Z,63.50
2018-08-23T18:26:17.625Z,62.50
2018-08-23T18:28:46.337Z,62.60
2018-08-23T18:31:15.091Z,63.10
2018-08-23T18:33:43.959Z,63.50
2018-08-23T18:36:12.624Z,64.10
2018-08-23T18:38:41.124Z,63.30
2018-08-23T18:41:09.706Z,63.80
2018-08-23T18:43:39.124Z,64.10
2018-08-23T18:46:08.634Z,64.10
2018-08-23T18:48:37.272Z,64.10
2018-08-23T18:51:08.981Z,64.20
2018-08-23T18:53:37.512Z,64.40
2018-08-23T18:56:06.655Z,64.40
2018-08-23T18:58:35.386Z,64.60
2018-08-23T19:01:03.880Z,64.30
2018-08-23T19:03:32.542Z,65.40
2018-08-23T19:06:04.297Z,65.40
2018-08-23T19:08:32.805Z,66.00
2018-08-23T19:11:02.373Z,65.20
2018-08-23T19:13:30.903Z,65.60
2018-08-23T19:16:06.419Z,65.70
2018-08-23T19:18:36.007Z,65.70
2018-08-23T19:21:04.502Z,65.90
2018-08-23T19:23:33.568Z,65.80
2018-08-23T19:26:02.641Z,66.40
2018-08-23T19:28:31.165Z,67.00
2018-08-23T19:31:00.829Z,67.00
2018-08-23T19:33:33.603Z,66.70
2018-08-23T19:36:05.788Z,66.50
2018-08-23T19:38:34.337Z,67.30
2018-08-23T19:41:02.846Z,66.90
2018-08-23T19:43:31.480Z,67.20
2018-08-23T19:46:05.412Z,67.80
2018-08-23T19:48:34.060Z,67.00
2018-08-23T19:51:06.444Z,67.70
2018-08-23T19:53:34.980Z,67.80
2018-08-23T19:56:04.351Z,67.70
2018-08-23T19:58:33.480Z,67.90
2018-08-23T20:01:16.122Z,67.80
2018-08-23T20:03:50.897Z,68.20
2018-08-23T20:06:19.630Z,68.30
2018-08-23T20:08:48.077Z,68.50
2018-08-23T20:11:17.338Z,68.40
2018-08-23T20:15:25.397Z,68.80
2018-08-23T20:18:17.622Z,69.00
2018-08-23T20:20:46.372Z,69.30
2018-08-23T20:23:34.683Z,69.50
2018-08-23T20:26:03.314Z,69.50
2018-08-23T20:28:31.761Z,69.40
2018-08-23T20:36:41.776Z,69.70
2018-08-23T20:39:12.752Z,69.70
2018-08-23T20:41:41.562Z,69.70
2018-08-23T20:47:01.613Z,70.20
2018-08-23T20:49:30.062Z,70.40
2018-08-23T20:51:58.526Z,70.50
2018-08-23T20:54:26.960Z,70.30
2018-08-23T20:57:16.941Z,70.60
2018-08-23T21:02:37.660Z,70.50
2018-08-23T21:05:06.118Z,70.70
2018-08-23T21:07:46.191Z,71.30
2018-08-23T21:10:14.662Z,71.20
2018-08-23T21:12:43.100Z,71.30
2018-08-23T21:15:11.670Z,71.50
2018-08-23T21:17:40.078Z,71.80
2018-08-23T21:20:08.580Z,71.60
2018-08-23T21:22:37.138Z,71.80
2018-08-23T21:25:05.583Z,71.70
2018-08-23T21:27:34.115Z,71.60
2018-08-23T21:30:02.716Z,71.80
2018-08-23T21:32:31.083Z,71.80
2018-08-23T21:34:59.585Z,71.60
2018-08-23T21:37:27.984Z,71.20
2018-08-23T21:39:56.469Z,71.70
2018-08-23T21:42:24.854Z,71.40
2018-08-23T21:47:46.696Z,71.40
2018-08-23T21:50:18.861Z,71.30
2018-08-23T21:55:40.366Z,71.10
2018-08-23T21:58:10.021Z,71.00
2018-08-23T22:00:43.863Z,71.40
2018-08-23T22:03:59.736Z,71.30
2018-08-23T22:06:28.113Z,71.00
2018-08-23T22:08:56.636Z,71.70
2018-08-23T22:11:25.044Z,71.60
2018-08-23T22:13:53.434Z,71.40
2018-08-23T22:16:21.959Z,71.50
2018-08-23T22:18:50.348Z,70.90
2018-08-23T22:21:18.868Z,71.40
2018-08-23T22:24:17.516Z,71.00
2018-08-23T22:46:25.244Z,71.80
2018-08-23T22:48:53.800Z,72.30
2018-08-23T22:54:18.314Z,71.80
2018-08-23T22:56:46.859Z,72.20
2018-08-23T23:02:08.268Z,72.50
2018-08-23T23:04:36.746Z,72.30
2018-08-23T23:07:08.283Z,73.00
2018-08-23T23:09:36.713Z,72.50
2018-08-23T23:12:05.118Z,72.70
2018-08-23T23:14:33.578Z,72.20
2018-08-23T23:17:15.697Z,71.80
2018-08-23T23:19:44.218Z,72.40
2018-08-23T23:22:18.855Z,72.80
2018-08-23T23:27:39.973Z,74.90
2018-08-23T23:30:17.372Z,76.60
2018-08-23T23:32:47.374Z,77.50
2018-08-23T23:38:08.713Z,79.20
2018-08-23T23:40:37.136Z,79.60
2018-08-23T23:43:05.582Z,80.00
2018-08-23T23:45:34.026Z,80.50
2018-08-23T23:48:02.479Z,79.70
2018-08-23T23:50:45.845Z,79.60
2018-08-23T23:53:14.182Z,79.90
2018-08-23T23:55:47.048Z,80.20
2018-08-23T23:58:15.554Z,79.70
